Ro Fjord — LFEI — position and weather

sailwx.info

Track history (hours):
 
Tides and Currents Weather Stations Pressure Air Temp Water Temp Dewpoint Dewpoint Depression Visibility Wind Speed Wind Dir Waves Ship Positions

Ro Fjord

Last reported at 2017-Apr-23 21:30 UTC. Time now 2017-Apr-23 21:45 UTC.
Position N 61°15' E 004°55'.

Length 72 m; draft 6.4 m.

Type: Ship. MMSI: 257430000.

Date/timePositionNaut miles runAvg speedWind from/ knotsBaromVisibWave heightAir tempDewpointWater temp
2017-Apr-23 21:30N 61°15' E 004°55'5 9.9
2017-Apr-23 21:00N 61°11' E 005°01'510.4
2017-Apr-23 20:30N 61°07' E 005°10'510.4
2017-Apr-23 20:00N 61°04' E 005°18'2 4.7
2017-Apr-23 19:30N 61°02' E 005°20'0 0.0
2017-Apr-23 19:00N 61°02' E 005°20'0 0.0
2017-Apr-23 18:30N 61°02' E 005°20'0 0.7
2017-Apr-23 18:00N 61°02' E 005°20'510.2
2017-Apr-23 17:30N 61°06' E 005°13'611.2
2017-Apr-23 17:00N 61°10' E 005°04'510.5
2017-Apr-23 16:30N 61°13' E 004°57'510.7
2017-Apr-23 16:00N 61°18' E 004°52'510.1
2017-Apr-23 15:30N 61°23' E 004°49'611.1
2017-Apr-23 15:00N 61°27' E 004°56'10 9.9
2017-Apr-23 14:00N 61°37' E 004°59'4 7.7
2017-Apr-23 13:29N 61°41' E 004°57'510.8
2017-Apr-23 13:00N 61°46' E 005°02'611.0
2017-Apr-23 12:30N 61°49' E 005°11'3 6.5
2017-Apr-23 12:00N 61°52' E 005°13'5 9.2
2017-Apr-23 11:30N 61°57' E 005°08'510.6
2017-Apr-23 10:59N 62°02' E 005°09'511.0
2017-Apr-23 10:30N 62°07' E 005°05'510.4
2017-Apr-23 10:00N 62°12' E 005°05'510.9
2017-Apr-23 09:30N 62°15' E 005°15'510.6
2017-Apr-23 09:00N 62°18' E 005°25'510.7
2017-Apr-23 08:30N 62°18' E 005°37'2 3.0
2017-Apr-23 08:00N 62°19' E 005°39'0 0.0
2017-Apr-23 07:30N 62°19' E 005°39'0 0.1
2017-Apr-23 07:00N 62°19' E 005°39'2 4.1
2017-Apr-23 06:30N 62°18' E 005°35'5 9.3
2017-Apr-23 06:00N 62°14' E 005°31'5 9.2
2017-Apr-23 05:30N 62°11' E 005°24'5 9.2
2017-Apr-23 05:00N 62°13' E 005°15'4 7.7
2017-Apr-23 04:30N 62°13' E 005°07'4 7.7
2017-Apr-23 04:00N 62°09' E 005°04'4 8.5
2017-Apr-23 03:29N 62°05' E 005°07'5 9.5
2017-Apr-23 03:00N 62°00' E 005°10'5 9.5
2017-Apr-23 02:30N 61°56' E 005°07'4 8.6
2017-Apr-23 02:00N 61°52' E 005°13'3 6.5
2017-Apr-23 01:30N 61°49' E 005°11'510.1
2017-Apr-23 01:00N 61°46' E 005°03'5 9.7
2017-Apr-23 00:30N 61°42' E 004°57'5 9.9
2017-Apr-23 00:00N 61°37' E 004°59'4 8.3
2017-Apr-22 23:30N 61°33' E 005°00'5 9.6
2017-Apr-22 23:00N 61°28' E 004°59'5 9.1
2017-Apr-22 22:30N 61°24' E 004°60'5 9.3
2017-Apr-22 22:00N 61°20' E 005°04'5 8.9
2017-Apr-22 21:30N 61°17' E 004°56'4 8.1
2017-Apr-22 21:00N 61°13' E 004°58'4 8.9
2017-Apr-22 20:30N 61°10' E 005°04'5 9.2
2017-Apr-22 20:00N 61°07' E 005°11'5 9.3
2017-Apr-22 19:30N 61°04' E 005°19'2 3.7
2017-Apr-22 19:00N 61°02' E 005°20'0 0.0
2017-Apr-22 18:30N 61°02' E 005°20'0 0.0
2017-Apr-22 18:00N 61°02' E 005°20'2 3.4
2017-Apr-22 17:30N 61°04' E 005°19'611.9
2017-Apr-22 17:00N 61°08' E 005°09'611.7
2017-Apr-22 16:30N 61°12' E 005°01'510.8
2017-Apr-22 16:00N 61°16' E 004°55'511.0
2017-Apr-22 15:30N 61°19' E 005°04'611.3
2017-Apr-22 15:00N 61°24' E 004°58'611.1
2017-Apr-22 14:29N 61°30' E 004°59'1010.5
2017-Apr-22 13:30N 61°40' E 004°58'511.0
2017-Apr-22 13:00N 61°46' E 005°00'611.4
2017-Apr-22 12:30N 61°49' E 005°10'4 7.2
2017-Apr-22 12:00N 61°52' E 005°14'5 9.4
2017-Apr-22 11:30N 61°56' E 005°07'0 0.2
2017-Apr-22 11:01N 61°56' E 005°08'0 0.0
2017-Apr-22 10:30N 61°56' E 005°08'4 7.0
2017-Apr-22 10:00N 61°59' E 005°10'511.1
2017-Apr-22 09:31N 62°05' E 005°07'611.1
2017-Apr-22 09:00N 62°10' E 005°04'5 9.9
2017-Apr-22 08:31N 62°14' E 005°10'510.6
2017-Apr-22 08:00N 62°17' E 005°20'510.1
2017-Apr-22 07:30N 62°18' E 005°30'4 9.0
2017-Apr-22 07:01N 62°19' E 005°39'0 0.2
2017-Apr-22 06:31N 62°19' E 005°39'0 0.0
2017-Apr-22 06:01N 62°19' E 005°39'0 0.9
2017-Apr-22 05:31N 62°19' E 005°39'5 9.1
2017-Apr-22 04:59N 62°16' E 005°31'4 8.4
2017-Apr-22 04:30N 62°12' E 005°28'4 8.7
2017-Apr-22 04:00N 62°11' E 005°19'5 9.3
2017-Apr-22 03:30N 62°14' E 005°11'4 7.9
2017-Apr-22 03:00N 62°12' E 005°03'3 7.0
2017-Apr-22 02:30N 62°08' E 005°05'4 8.1
2017-Apr-22 02:00N 62°04' E 005°07'5 9.2
2017-Apr-22 01:30N 62°00' E 005°10'4 8.3
2017-Apr-22 01:00N 61°56' E 005°08'3 7.2
2017-Apr-22 00:30N 61°53' E 005°10'4 7.1
2017-Apr-22 00:00N 61°50' E 005°15'5 9.4
2017-Apr-21 23:30N 61°48' E 005°06'5 9.9
2017-Apr-21 23:00N 61°44' E 004°58'5 9.3
2017-Apr-21 22:31N 61°40' E 004°58'5 8.9
2017-Apr-21 22:00N 61°35' E 004°57'4 8.9
2017-Apr-21 21:30N 61°31' E 005°00'5 9.0
2017-Apr-21 21:00N 61°26' E 004°58'4 8.7
2017-Apr-21 20:30N 61°22' E 005°02'4 7.9
2017-Apr-21 20:00N 61°18' E 005°02'4 8.7
2017-Apr-21 19:30N 61°16' E 004°55'5 9.1
2017-Apr-21 19:00N 61°12' E 005°00'4 8.8
2017-Apr-21 18:30N 61°09' E 005°07'5 9.4
2017-Apr-21 18:01N 61°06' E 005°14'4 8.5
2017-Apr-21 17:31N 61°03' E 005°20'1 1.3
2017-Apr-21 17:00N 61°02' E 005°20'0 0.0
2017-Apr-21 16:30N 61°02' E 005°20'0 0.0
2017-Apr-21 16:00N 61°02' E 005°20'0 0.4
2017-Apr-21 15:29N 61°02' E 005°20'0 0.0
2017-Apr-21 15:00N 61°02' E 005°20'0 0.0
2017-Apr-21 14:30N 61°02' E 005°20'4 4.0
2017-Apr-21 13:30N 61°05' E 005°15'612.0
2017-Apr-21 13:00N 61°09' E 005°05'611.4
2017-Apr-21 12:31N 61°13' E 004°57'5 9.0
2017-Apr-21 12:00N 61°18' E 004°59'4 8.7
2017-Apr-21 11:29N 61°22' E 005°02'510.9
2017-Apr-21 11:00N 61°27' E 004°58'611.3
2017-Apr-21 10:30N 61°32' E 004°60'510.0
2017-Apr-21 10:00N 61°37' E 004°59'611.4
2017-Apr-21 09:30N 61°43' E 004°57'610.8
2017-Apr-21 09:00N 61°47' E 005°05'510.9
2017-Apr-21 08:30N 61°50' E 005°15'5 9.0
2017-Apr-21 08:00N 61°54' E 005°09'510.0
2017-Apr-21 07:31N 61°58' E 005°09'510.5
2017-Apr-21 07:00N 62°04' E 005°07'510.5
2017-Apr-21 06:30N 62°09' E 005°03'4 7.6
2017-Apr-21 06:00N 62°12' E 005°05'4 7.0
2017-Apr-21 05:30N 62°14' E 005°12'4 7.9
2017-Apr-21 05:00N 62°11' E 005°19'4 7.5
2017-Apr-21 04:31N 62°12' E 005°26'2 4.7
2017-Apr-21 04:00N 62°13' E 005°31'5 9.2
2017-Apr-21 03:30N 62°17' E 005°32'4 7.8
2017-Apr-21 03:01N 62°19' E 005°39'0 0.2
2017-Apr-21 02:30N 62°19' E 005°39'0 0.0
2017-Apr-21 02:01N 62°19' E 005°39'0 0.6
2017-Apr-21 01:31N 62°19' E 005°40'510.1
2017-Apr-21 01:00N 62°18' E 005°29'5 9.5
2017-Apr-21 00:30N 62°16' E 005°19'5 9.6
2017-Apr-21 00:00N 62°14' E 005°10'5 9.5
2017-Apr-20 23:30N 62°11' E 005°02'4 8.8
2017-Apr-20 23:00N 62°07' E 004°60'3 6.7
2017-Apr-20 22:30N 62°04' E 005°04'3 6.4
2017-Apr-20 21:59N 62°02' E 005°09'5 9.9
2017-Apr-20 21:30N 61°57' E 005°09'4 8.3
2017-Apr-20 21:01N 61°53' E 005°10'4 7.8
2017-Apr-20 20:31N 61°50' E 005°16'5 9.9
2017-Apr-20 20:00N 61°48' E 005°06'510.4
2017-Apr-20 19:30N 61°44' E 004°59'5 9.7
2017-Apr-20 19:00N 61°39' E 004°59'5 9.5
2017-Apr-20 18:31N 61°35' E 004°57'5 9.1
2017-Apr-20 18:00N 61°30' E 004°60'510.0
2017-Apr-20 17:30N 61°26' E 004°54'5 9.9
2017-Apr-20 17:00N 61°22' E 004°49'5 9.7
2017-Apr-20 16:30N 61°18' E 004°54'5 9.9
2017-Apr-20 16:00N 61°13' E 004°58'5 9.6
2017-Apr-20 15:31N 61°10' E 005°05'5 9.9
2017-Apr-20 15:00N 61°06' E 005°12'9 9.0
2017-Apr-20 14:00N 61°04' E 005°30'2 3.5
2017-Apr-20 13:30N 61°04' E 005°34'0 0.0
2017-Apr-20 13:00N 61°04' E 005°34'1 2.7
2017-Apr-20 12:30N 61°04' E 005°31'611.1
2017-Apr-20 12:00N 61°04' E 005°20'611.7
2017-Apr-20 11:30N 61°07' E 005°09'611.1
2017-Apr-20 11:00N 61°11' E 005°01'510.6
2017-Apr-20 10:30N 61°16' E 004°55'5 9.7
2017-Apr-20 10:01N 61°19' E 005°03'510.3
2017-Apr-20 09:30N 61°24' E 004°60'510.5
2017-Apr-20 09:00N 61°29' E 004°59'510.5
2017-Apr-20 08:30N 61°34' E 004°58'510.1
2017-Apr-20 08:00N 61°39' E 004°59'510.0
2017-Apr-20 07:30N 61°44' E 004°59'5 9.8
2017-Apr-20 07:00N 61°48' E 005°06'510.1
2017-Apr-20 06:30N 61°50' E 005°15'4 8.4
2017-Apr-20 06:00N 61°53' E 005°10'4 8.8
2017-Apr-20 05:31N 61°58' E 005°09'5 9.8
2017-Apr-20 05:00N 62°03' E 005°09'5 9.6
2017-Apr-20 04:30N 62°07' E 005°05'3 7.0
2017-Apr-20 04:01N 62°10' E 005°03'3 6.1
2017-Apr-20 03:30N 62°13' E 005°07'4 8.1
2017-Apr-20 03:00N 62°12' E 005°16'4 8.9
2017-Apr-20 02:30N 62°11' E 005°25'4 8.3
2017-Apr-20 02:00N 62°15' E 005°30'4 8.9
2017-Apr-20 01:30N 62°18' E 005°36'2 3.8
2017-Apr-20 01:00N 62°19' E 005°39'0 0.0
2017-Apr-20 00:30N 62°19' E 005°39'0 0.1
2017-Apr-20 00:01N 62°19' E 005°39'4 8.1
2017-Apr-19 23:30N 62°18' E 005°31'510.3
2017-Apr-19 23:00N 62°16' E 005°21'510.4
2017-Apr-19 22:30N 62°14' E 005°11'510.0
2017-Apr-19 22:00N 62°10' E 005°04'5 9.7
2017-Apr-19 21:30N 62°06' E 005°06'5 9.8
2017-Apr-19 21:00N 62°01' E 005°09'510.1
2017-Apr-19 20:30N 61°56' E 005°07'4 8.3
2017-Apr-19 20:00N 61°52' E 005°13'3 6.4
2017-Apr-19 19:30N 61°49' E 005°12'611.0
2017-Apr-19 19:00N 61°46' E 005°02'510.4
2017-Apr-19 18:30N 61°42' E 004°57'510.2
2017-Apr-19 18:00N 61°37' E 004°58'4 9.0
2017-Apr-19 17:30N 61°32' E 005°00'5 9.8
2017-Apr-19 17:00N 61°28' E 004°56'510.4
2017-Apr-19 16:30N 61°24' E 004°50'5 9.4
2017-Apr-19 16:00N 61°19' E 004°51'510.3
2017-Apr-19 15:30N 61°14' E 004°56'510.3
2017-Apr-19 15:00N 61°10' E 005°02'510.6
2017-Apr-19 14:30N 61°07' E 005°11'10 9.8
2017-Apr-19 13:30N 61°04' E 005°30'2 3.4
2017-Apr-19 12:58N 61°04' E 005°34'0 0.0
2017-Apr-19 12:28N 61°04' E 005°34'0 0.0
2017-Apr-19 11:58N 61°04' E 005°34'2 4.5
2017-Apr-19 11:30N 61°04' E 005°30'510.2
2017-Apr-19 11:00N 61°05' E 005°19'510.5
2017-Apr-19 10:30N 61°08' E 005°10'510.3
2017-Apr-19 10:00N 61°11' E 005°01'5 9.8
2017-Apr-19 09:30N 61°15' E 004°55'510.1
2017-Apr-19 09:00N 61°19' E 004°51'5 9.1
2017-Apr-19 08:30N 61°24' E 004°50'5 9.9
2017-Apr-19 08:00N 61°28' E 004°56'5 9.8
2017-Apr-19 07:30N 61°32' E 005°00'4 7.6
2017-Apr-19 07:00N 61°36' E 004°60'1 1.5
2017-Apr-19 06:28N 61°36' E 005°01'0 0.0
2017-Apr-19 05:58N 61°36' E 005°01'0 0.0
2017-Apr-19 05:28N 61°36' E 005°01'0 0.0
2017-Apr-19 04:58N 61°36' E 005°01'0 0.0
2017-Apr-19 04:28N 61°36' E 005°01'0 0.0
2017-Apr-19 03:58N 61°36' E 005°01'0 0.0
2017-Apr-19 03:28N 61°36' E 005°01'0 0.0
2017-Apr-19 02:58N 61°36' E 005°01'0 0.0
2017-Apr-19 02:28N 61°36' E 005°01'0 0.0
2017-Apr-19 02:00N 61°36' E 005°01'0 0.0
2017-Apr-19 01:30N 61°36' E 005°01'0 0.0
2017-Apr-19 01:00N 61°36' E 005°01'0 0.0
2017-Apr-19 00:30N 61°36' E 005°01'0 0.0
2017-Apr-19 00:00N 61°36' E 005°01'0 0.0
2017-Apr-18 23:30N 61°36' E 005°01'0 0.0
2017-Apr-18 23:00N 61°36' E 005°01'0 0.0
2017-Apr-18 22:30N 61°36' E 005°01'0 0.0
2017-Apr-18 22:00N 61°36' E 005°01'0 0.0
2017-Apr-18 21:29N 61°36' E 005°01'2 5.1
2017-Apr-18 21:00N 61°34' E 004°57'610.3
2017-Apr-18 20:27N 61°36' E 005°09'1 1.5
2017-Apr-18 19:38N 61°36' E 005°11'0 0.7
2017-Apr-18 19:24N 61°36' E 005°12'2 5.4
2017-Apr-18 18:59N 61°36' E 005°07'0 0.4
2017-Apr-18 18:30N 61°36' E 005°07'2 3.7
2017-Apr-18 17:57N 61°36' E 005°11'0 0.0
2017-Apr-18 17:27N 61°36' E 005°11'0 0.1
2017-Apr-18 16:25N 61°36' E 005°12'2 5.2
2017-Apr-18 16:00N 61°36' E 005°07'0 0.4
2017-Apr-18 15:29N 61°36' E 005°08'2 1.5
2017-Apr-18 14:16N 61°36' E 005°11'0 0.3
2017-Apr-18 13:22N 61°36' E 005°12'2 6.1
2017-Apr-18 12:59N 61°36' E 005°07'0 0.1
2017-Apr-18 12:30N 61°35' E 005°07'2 1.6
2017-Apr-18 11:01N 61°36' E 005°12'0 5.9
2017-Apr-18 11:00N 61°36' E 005°12'0 0.6
2017-Apr-18 10:28N 61°36' E 005°11'2 3.9
2017-Apr-18 09:59N 61°36' E 005°07'0 0.2
2017-Apr-18 09:30N 61°36' E 005°07'1 1.6
2017-Apr-18 09:00N 61°36' E 005°09'1 1.0
2017-Apr-18 07:51N 61°36' E 005°11'1 1.7
2017-Apr-18 07:30N 61°36' E 005°10'0 0.1
2017-Apr-18 06:19N 61°36' E 005°10'0 0.7
2017-Apr-18 05:50N 61°36' E 005°10'2 6.0
2017-Apr-18 05:29N 61°35' E 005°06'4 8.2
2017-Apr-18 05:00N 61°34' E 004°58'3 5.5
2017-Apr-18 04:30N 61°36' E 005°02'0 0.0
2017-Apr-18 04:00N 61°36' E 005°02'0 0.0
2017-Apr-18 03:29N 61°36' E 005°02'0 0.0
2017-Apr-18 03:00N 61°36' E 005°02'0 0.0
2017-Apr-18 02:30N 61°36' E 005°02'0 0.0
2017-Apr-18 02:00N 61°36' E 005°02'0 0.0
2017-Apr-18 01:30N 61°36' E 005°02'0 0.0
2017-Apr-18 01:00N 61°36' E 005°02'0 0.0
2017-Apr-18 00:30N 61°36' E 005°02'0 0.0
2017-Apr-18 00:00N 61°36' E 005°02'0 0.0
2017-Apr-17 23:30N 61°36' E 005°02'0 0.2
2017-Apr-17 23:00N 61°36' E 005°02'0 0.1
2017-Apr-17 22:30N 61°36' E 005°02'0 0.0
2017-Apr-17 22:00N 61°36' E 005°02'0 0.0
2017-Apr-17 21:30N 61°36' E 005°02'0 0.0
2017-Apr-17 21:00N 61°36' E 005°02'0 0.0
2017-Apr-17 20:30N 61°36' E 005°02'3 5.7
2017-Apr-17 20:00N 61°39' E 004°59'510.2
2017-Apr-17 19:30N 61°44' E 004°58'510.5
2017-Apr-17 19:00N 61°48' E 005°06'510.4
2017-Apr-17 18:30N 61°50' E 005°15'4 8.8
2017-Apr-17 18:00N 61°54' E 005°10'3 5.1
2017-Apr-17 17:30N 61°56' E 005°08'4 9.0
2017-Apr-17 17:00N 62°00' E 005°09'611.0
2017-Apr-17 16:30N 62°06' E 005°06'510.8
2017-Apr-17 16:00N 62°11' E 005°05'510.4
2017-Apr-17 15:30N 62°14' E 005°13'510.9
2017-Apr-17 15:00N 62°17' E 005°23'510.9
2017-Apr-17 14:30N 62°18' E 005°35'2 2.5
2017-Apr-17 13:30N 62°19' E 005°39'0 0.7
2017-Apr-17 13:00N 62°19' E 005°40'5 9.1
2017-Apr-17 12:30N 62°17' E 005°32'5 9.3
2017-Apr-17 12:00N 62°12' E 005°30'5 9.2
2017-Apr-17 11:30N 62°09' E 005°22'1 2.8
2017-Apr-17 11:00N 62°08' E 005°20'0 0.0
2017-Apr-17 10:30N 62°08' E 005°20'0 0.0
2017-Apr-17 10:00N 62°08' E 005°20'0 0.0
2017-Apr-17 09:30N 62°08' E 005°20'0 0.0
2017-Apr-17 09:00N 62°08' E 005°20'0 0.0
2017-Apr-17 08:30N 62°08' E 005°20'0 0.0
2017-Apr-17 08:00N 62°08' E 005°20'0 0.0
2017-Apr-17 07:30N 62°08' E 005°20'1 1.4
2017-Apr-17 07:00N 62°09' E 005°21'510.0
2017-Apr-17 06:30N 62°12' E 005°29'3 5.2
2017-Apr-17 06:00N 62°12' E 005°34'0 0.0
2017-Apr-17 05:30N 62°12' E 005°34'0 0.0
2017-Apr-17 05:00N 62°12' E 005°34'0 0.0
2017-Apr-17 04:30N 62°12' E 005°34'0 0.0
2017-Apr-17 04:00N 62°12' E 005°34'0 0.0
2017-Apr-17 03:30N 62°12' E 005°34'0 0.0
2017-Apr-17 03:00N 62°12' E 005°34'0 0.0
2017-Apr-17 02:30N 62°12' E 005°34'0 0.0
2017-Apr-17 02:00N 62°12' E 005°34'0 0.0
2017-Apr-17 01:30N 62°12' E 005°34'0 0.0
2017-Apr-17 01:00N 62°12' E 005°34'0 0.0
2017-Apr-17 00:30N 62°12' E 005°34'0 0.0
2017-Apr-17 00:00N 62°12' E 005°34'0 0.0
2017-Apr-16 23:30N 62°12' E 005°34'0 0.0
2017-Apr-16 23:00N 62°12' E 005°34'0 0.0
2017-Apr-16 22:30N 62°12' E 005°34'0 0.0
2017-Apr-16 22:00N 62°12' E 005°34'0 0.0
2017-Apr-16 21:30N 62°12' E 005°34'0 0.0
2017-Apr-16 21:00N 62°12' E 005°34'0 0.0
2017-Apr-16 20:30N 62°12' E 005°34'0 0.0
2017-Apr-16 20:00N 62°12' E 005°34'0 0.0
2017-Apr-16 19:30N 62°12' E 005°34'0 0.0
2017-Apr-16 19:00N 62°12' E 005°34'0 0.0
2017-Apr-16 18:30N 62°12' E 005°34'0 0.0
2017-Apr-16 18:00N 62°12' E 005°34'0 0.0
2017-Apr-16 17:30N 62°12' E 005°34'0 0.0
2017-Apr-16 17:00N 62°12' E 005°34'0 0.0
2017-Apr-16 16:30N 62°12' E 005°34'0 0.0
2017-Apr-16 15:57N 62°12' E 005°34'0 0.0
2017-Apr-16 15:30N 62°12' E 005°34'0 0.0
2017-Apr-16 15:00N 62°12' E 005°34'0 0.0
2017-Apr-16 14:00N 62°12' E 005°34'0 0.0
2017-Apr-16 13:30N 62°12' E 005°34'0 0.0
2017-Apr-16 13:00N 62°12' E 005°34'0 0.0
2017-Apr-16 12:30N 62°12' E 005°34'0 0.0
2017-Apr-16 12:00N 62°12' E 005°34'0 0.0
2017-Apr-16 11:30N 62°12' E 005°34'0 0.0
2017-Apr-16 11:00N 62°12' E 005°34'0 0.0
2017-Apr-16 10:30N 62°12' E 005°34'0 0.0
2017-Apr-16 10:00N 62°12' E 005°34'0 0.0
2017-Apr-16 09:30N 62°12' E 005°34'0 0.0
2017-Apr-16 09:00N 62°12' E 005°34'0 0.0
2017-Apr-16 08:30N 62°12' E 005°34'0 0.0
2017-Apr-16 08:00N 62°12' E 005°34'0 0.0
2017-Apr-16 07:30N 62°12' E 005°34'0 0.0
2017-Apr-16 07:00N 62°12' E 005°34'0 0.0
2017-Apr-16 06:30N 62°12' E 005°34'0 0.0
2017-Apr-16 06:00N 62°12' E 005°34'0 0.0
2017-Apr-16 05:30N 62°12' E 005°34'0 0.0
2017-Apr-16 05:00N 62°12' E 005°34'0 0.0
2017-Apr-16 04:30N 62°12' E 005°34'0 0.0
2017-Apr-16 04:00N 62°12' E 005°34'0 0.0
2017-Apr-16 03:30N 62°12' E 005°34'0 0.0
2017-Apr-16 03:00N 62°12' E 005°34'0 0.0
2017-Apr-16 02:30N 62°12' E 005°34'0 0.0
2017-Apr-16 02:00N 62°12' E 005°34'0 0.0
2017-Apr-16 01:30N 62°12' E 005°34'0 0.0
2017-Apr-16 01:00N 62°12' E 005°34'0 0.0
2017-Apr-16 00:30N 62°12' E 005°34'0 0.0
2017-Apr-16 00:00N 62°12' E 005°34'0 0.0
2017-Apr-15 23:27N 62°12' E 005°34'0 0.0
2017-Apr-15 23:00N 62°12' E 005°34'0 0.0
2017-Apr-15 22:30N 62°12' E 005°34'0 0.0
2017-Apr-15 22:00N 62°12' E 005°34'0 0.0
2017-Apr-15 21:27N 62°12' E 005°34'0 0.0
2017-Apr-15 21:00N 62°12' E 005°34'0 0.0
2017-Apr-15 20:30N 62°12' E 005°34'0 0.0
2017-Apr-15 20:00N 62°12' E 005°34'0 0.0
2017-Apr-15 19:30N 62°12' E 005°34'0 0.0
2017-Apr-15 19:00N 62°12' E 005°34'0 0.0
2017-Apr-15 18:27N 62°12' E 005°34'0 0.0
2017-Apr-15 18:00N 62°12' E 005°34'0 0.0
2017-Apr-15 17:30N 62°12' E 005°34'0 0.0
2017-Apr-15 17:00N 62°12' E 005°34'0 0.0
2017-Apr-15 16:30N 62°12' E 005°34'0 0.0
2017-Apr-15 16:00N 62°12' E 005°34'0 0.0
2017-Apr-15 15:30N 62°12' E 005°34'0 0.0
2017-Apr-15 15:00N 62°12' E 005°34'0 0.0
2017-Apr-15 13:57N 62°12' E 005°34'0 0.0
2017-Apr-15 13:30N 62°12' E 005°34'0 0.0
2017-Apr-15 13:00N 62°12' E 005°34'0 0.0
2017-Apr-15 12:30N 62°12' E 005°34'0 0.0
2017-Apr-15 12:00N 62°12' E 005°34'0 0.0
2017-Apr-15 11:30N 62°12' E 005°34'0 0.0
2017-Apr-15 11:00N 62°12' E 005°34'0 0.0
2017-Apr-15 10:30N 62°12' E 005°34'0 0.0
2017-Apr-15 10:00N 62°12' E 005°34'0 0.0
2017-Apr-15 09:30N 62°12' E 005°34'0 0.0
2017-Apr-15 09:00N 62°12' E 005°34'0 0.0
2017-Apr-15 08:30N 62°12' E 005°34'0 0.0
2017-Apr-15 08:00N 62°12' E 005°34'0 0.0
2017-Apr-15 07:30N 62°12' E 005°34'0 0.0
2017-Apr-15 07:00N 62°12' E 005°34'0 0.0
2017-Apr-15 06:30N 62°12' E 005°34'0 0.0
2017-Apr-15 06:00N 62°12' E 005°34'0 0.0
2017-Apr-15 05:30N 62°12' E 005°34'0 0.0
2017-Apr-15 05:00N 62°12' E 005°34'0 0.0
2017-Apr-15 04:30N 62°12' E 005°34'0 0.0
2017-Apr-15 04:00N 62°12' E 005°34'0 0.0
2017-Apr-15 03:30N 62°12' E 005°34'0 0.0
2017-Apr-15 02:57N 62°12' E 005°34'0 0.0
2017-Apr-15 02:30N 62°12' E 005°34'0 0.0
2017-Apr-15 02:00N 62°12' E 005°34'0 0.0
2017-Apr-15 01:30N 62°12' E 005°34'0 0.0
2017-Apr-15 01:00N 62°12' E 005°34'0 0.0
2017-Apr-15 00:30N 62°12' E 005°34'0 0.0
2017-Apr-15 00:00N 62°12' E 005°34'0 0.0
2017-Apr-14 23:30N 62°12' E 005°34'0 0.0
2017-Apr-14 23:00N 62°12' E 005°34'0 0.0
2017-Apr-14 22:30N 62°12' E 005°34'0 0.0
2017-Apr-14 21:54N 62°12' E 005°34'0 0.0
2017-Apr-14 21:30N 62°12' E 005°34'0 0.0
2017-Apr-14 21:00N 62°12' E 005°34'0 0.0
2017-Apr-14 20:30N 62°12' E 005°34'0 0.0
2017-Apr-14 20:00N 62°12' E 005°34'0 0.0
2017-Apr-14 19:30N 62°12' E 005°34'0 0.0
2017-Apr-14 19:00N 62°12' E 005°34'0 0.0
2017-Apr-14 18:30N 62°12' E 005°34'0 0.0
2017-Apr-14 18:00N 62°12' E 005°34'0 0.0
2017-Apr-14 17:30N 62°12' E 005°34'0 0.0
2017-Apr-14 17:00N 62°12' E 005°34'0 0.0
2017-Apr-14 16:30N 62°12' E 005°34'0 0.0
2017-Apr-14 16:00N 62°12' E 005°34'0 0.0
2017-Apr-14 15:30N 62°12' E 005°34'0 0.0
2017-Apr-14 15:00N 62°12' E 005°34'0 0.0
2017-Apr-14 14:30N 62°12' E 005°34'0 0.0
2017-Apr-14 13:30N 62°12' E 005°34'0 0.0
2017-Apr-14 13:00N 62°12' E 005°34'0 0.0
2017-Apr-14 12:30N 62°12' E 005°34'0 0.0
2017-Apr-14 12:00N 62°12' E 005°34'0 0.0
2017-Apr-14 11:30N 62°12' E 005°34'0 0.0
2017-Apr-14 11:00N 62°12' E 005°34'0 0.0
2017-Apr-14 10:30N 62°12' E 005°34'0 0.0
2017-Apr-14 10:00N 62°12' E 005°34'0 0.0
2017-Apr-14 09:30N 62°12' E 005°34'0 0.0
2017-Apr-14 08:54N 62°12' E 005°34'0 0.0
2017-Apr-14 08:30N 62°12' E 005°34'0 0.0
2017-Apr-14 08:00N 62°12' E 005°34'0 0.0
2017-Apr-14 07:30N 62°12' E 005°34'0 0.0
2017-Apr-14 07:00N 62°12' E 005°34'0 0.0
2017-Apr-14 06:30N 62°12' E 005°34'0 0.0
2017-Apr-14 06:00N 62°12' E 005°34'0 0.0
2017-Apr-14 05:30N 62°12' E 005°34'0 0.0
2017-Apr-14 05:00N 62°12' E 005°34'0 0.0
2017-Apr-14 04:30N 62°12' E 005°34'0 0.0
2017-Apr-14 04:00N 62°12' E 005°34'0 0.0
2017-Apr-14 03:30N 62°12' E 005°34'0 0.0
2017-Apr-14 03:00N 62°12' E 005°34'0 0.0
2017-Apr-14 02:30N 62°12' E 005°34'0 0.0
2017-Apr-14 02:00N 62°12' E 005°34'0 0.0
2017-Apr-14 01:30N 62°12' E 005°34'0 0.0
2017-Apr-14 01:00N 62°12' E 005°34'0 0.0
2017-Apr-14 00:30N 62°12' E 005°34'0 0.0
2017-Apr-14 00:00N 62°12' E 005°34'0 0.0
2017-Apr-13 23:30N 62°12' E 005°34'0 0.0
2017-Apr-13 23:00N 62°12' E 005°34'0 0.0
2017-Apr-13 22:30N 62°12' E 005°34'0 0.0
2017-Apr-13 22:00N 62°12' E 005°34'  
Track history (hours):
 
Tides and Currents Weather Stations Pressure Air Temp Water Temp Dewpoint Dewpoint Depression Visibility Wind Speed Wind Dir Waves Ship Positions

Ro Fjord

Last reported at 2017-Apr-23 21:30 UTC. Time now 2017-Apr-23 21:45 UTC.
Position N 61°15' E 004°55'.

Length 72 m; draft 6.4 m.

Type: Ship. MMSI: 257430000.

Date/timePositionNaut miles runAvg speedWind from/ knotsBaromVisibWave heightAir tempDewpointWater temp
2017-Apr-23 21:30N 61°15' E 004°55'5 9.9
2017-Apr-23 21:00N 61°11' E 005°01'510.4
2017-Apr-23 20:30N 61°07' E 005°10'510.4
2017-Apr-23 20:00N 61°04' E 005°18'2 4.7
2017-Apr-23 19:30N 61°02' E 005°20'0 0.0
2017-Apr-23 19:00N 61°02' E 005°20'0 0.0
2017-Apr-23 18:30N 61°02' E 005°20'0 0.7
2017-Apr-23 18:00N 61°02' E 005°20'510.2
2017-Apr-23 17:30N 61°06' E 005°13'611.2
2017-Apr-23 17:00N 61°10' E 005°04'510.5
2017-Apr-23 16:30N 61°13' E 004°57'510.7
2017-Apr-23 16:00N 61°18' E 004°52'510.1
2017-Apr-23 15:30N 61°23' E 004°49'611.1
2017-Apr-23 15:00N 61°27' E 004°56'10 9.9
2017-Apr-23 14:00N 61°37' E 004°59'4 7.7
2017-Apr-23 13:29N 61°41' E 004°57'510.8
2017-Apr-23 13:00N 61°46' E 005°02'611.0
2017-Apr-23 12:30N 61°49' E 005°11'3 6.5
2017-Apr-23 12:00N 61°52' E 005°13'5 9.2
2017-Apr-23 11:30N 61°57' E 005°08'510.6
2017-Apr-23 10:59N 62°02' E 005°09'511.0
2017-Apr-23 10:30N 62°07' E 005°05'510.4
2017-Apr-23 10:00N 62°12' E 005°05'510.9
2017-Apr-23 09:30N 62°15' E 005°15'510.6
2017-Apr-23 09:00N 62°18' E 005°25'510.7
2017-Apr-23 08:30N 62°18' E 005°37'2 3.0
2017-Apr-23 08:00N 62°19' E 005°39'0 0.0
2017-Apr-23 07:30N 62°19' E 005°39'0 0.1
2017-Apr-23 07:00N 62°19' E 005°39'2 4.1
2017-Apr-23 06:30N 62°18' E 005°35'5 9.3
2017-Apr-23 06:00N 62°14' E 005°31'5 9.2
2017-Apr-23 05:30N 62°11' E 005°24'5 9.2
2017-Apr-23 05:00N 62°13' E 005°15'4 7.7
2017-Apr-23 04:30N 62°13' E 005°07'4 7.7
2017-Apr-23 04:00N 62°09' E 005°04'4 8.5
2017-Apr-23 03:29N 62°05' E 005°07'5 9.5
2017-Apr-23 03:00N 62°00' E 005°10'5 9.5
2017-Apr-23 02:30N 61°56' E 005°07'4 8.6
2017-Apr-23 02:00N 61°52' E 005°13'3 6.5
2017-Apr-23 01:30N 61°49' E 005°11'510.1
2017-Apr-23 01:00N 61°46' E 005°03'5 9.7
2017-Apr-23 00:30N 61°42' E 004°57'5 9.9
2017-Apr-23 00:00N 61°37' E 004°59'4 8.3
2017-Apr-22 23:30N 61°33' E 005°00'5 9.6
2017-Apr-22 23:00N 61°28' E 004°59'5 9.1
2017-Apr-22 22:30N 61°24' E 004°60'5 9.3
2017-Apr-22 22:00N 61°20' E 005°04'5 8.9
2017-Apr-22 21:30N 61°17' E 004°56'4 8.1
2017-Apr-22 21:00N 61°13' E 004°58'4 8.9
2017-Apr-22 20:30N 61°10' E 005°04'5 9.2
2017-Apr-22 20:00N 61°07' E 005°11'5 9.3
2017-Apr-22 19:30N 61°04' E 005°19'2 3.7
2017-Apr-22 19:00N 61°02' E 005°20'0 0.0
2017-Apr-22 18:30N 61°02' E 005°20'0 0.0
2017-Apr-22 18:00N 61°02' E 005°20'2 3.4
2017-Apr-22 17:30N 61°04' E 005°19'611.9
2017-Apr-22 17:00N 61°08' E 005°09'611.7
2017-Apr-22 16:30N 61°12' E 005°01'510.8
2017-Apr-22 16:00N 61°16' E 004°55'511.0
2017-Apr-22 15:30N 61°19' E 005°04'611.3
2017-Apr-22 15:00N 61°24' E 004°58'611.1
2017-Apr-22 14:29N 61°30' E 004°59'1010.5
2017-Apr-22 13:30N 61°40' E 004°58'511.0
2017-Apr-22 13:00N 61°46' E 005°00'611.4
2017-Apr-22 12:30N 61°49' E 005°10'4 7.2
2017-Apr-22 12:00N 61°52' E 005°14'5 9.4
2017-Apr-22 11:30N 61°56' E 005°07'0 0.2
2017-Apr-22 11:01N 61°56' E 005°08'0 0.0
2017-Apr-22 10:30N 61°56' E 005°08'4 7.0
2017-Apr-22 10:00N 61°59' E 005°10'511.1
2017-Apr-22 09:31N 62°05' E 005°07'611.1
2017-Apr-22 09:00N 62°10' E 005°04'5 9.9
2017-Apr-22 08:31N 62°14' E 005°10'510.6
2017-Apr-22 08:00N 62°17' E 005°20'510.1
2017-Apr-22 07:30N 62°18' E 005°30'4 9.0
2017-Apr-22 07:01N 62°19' E 005°39'0 0.2
2017-Apr-22 06:31N 62°19' E 005°39'0 0.0
2017-Apr-22 06:01N 62°19' E 005°39'0 0.9
2017-Apr-22 05:31N 62°19' E 005°39'5 9.1
2017-Apr-22 04:59N 62°16' E 005°31'4 8.4
2017-Apr-22 04:30N 62°12' E 005°28'4 8.7
2017-Apr-22 04:00N 62°11' E 005°19'5 9.3
2017-Apr-22 03:30N 62°14' E 005°11'4 7.9
2017-Apr-22 03:00N 62°12' E 005°03'3 7.0
2017-Apr-22 02:30N 62°08' E 005°05'4 8.1
2017-Apr-22 02:00N 62°04' E 005°07'5 9.2
2017-Apr-22 01:30N 62°00' E 005°10'4 8.3
2017-Apr-22 01:00N 61°56' E 005°08'3 7.2
2017-Apr-22 00:30N 61°53' E 005°10'4 7.1
2017-Apr-22 00:00N 61°50' E 005°15'5 9.4
2017-Apr-21 23:30N 61°48' E 005°06'5 9.9
2017-Apr-21 23:00N 61°44' E 004°58'5 9.3
2017-Apr-21 22:31N 61°40' E 004°58'5 8.9
2017-Apr-21 22:00N 61°35' E 004°57'4 8.9
2017-Apr-21 21:30N 61°31' E 005°00'5 9.0
2017-Apr-21 21:00N 61°26' E 004°58'4 8.7
2017-Apr-21 20:30N 61°22' E 005°02'4 7.9
2017-Apr-21 20:00N 61°18' E 005°02'4 8.7
2017-Apr-21 19:30N 61°16' E 004°55'5 9.1
2017-Apr-21 19:00N 61°12' E 005°00'4 8.8
2017-Apr-21 18:30N 61°09' E 005°07'5 9.4
2017-Apr-21 18:01N 61°06' E 005°14'4 8.5
2017-Apr-21 17:31N 61°03' E 005°20'1 1.3
2017-Apr-21 17:00N 61°02' E 005°20'0 0.0
2017-Apr-21 16:30N 61°02' E 005°20'0 0.0
2017-Apr-21 16:00N 61°02' E 005°20'0 0.4
2017-Apr-21 15:29N 61°02' E 005°20'0 0.0
2017-Apr-21 15:00N 61°02' E 005°20'0 0.0
2017-Apr-21 14:30N 61°02' E 005°20'4 4.0
2017-Apr-21 13:30N 61°05' E 005°15'612.0
2017-Apr-21 13:00N 61°09' E 005°05'611.4
2017-Apr-21 12:31N 61°13' E 004°57'5 9.0
2017-Apr-21 12:00N 61°18' E 004°59'4 8.7
2017-Apr-21 11:29N 61°22' E 005°02'510.9
2017-Apr-21 11:00N 61°27' E 004°58'611.3
2017-Apr-21 10:30N 61°32' E 004°60'510.0
2017-Apr-21 10:00N 61°37' E 004°59'611.4
2017-Apr-21 09:30N 61°43' E 004°57'610.8
2017-Apr-21 09:00N 61°47' E 005°05'510.9
2017-Apr-21 08:30N 61°50' E 005°15'5 9.0
2017-Apr-21 08:00N 61°54' E 005°09'510.0
2017-Apr-21 07:31N 61°58' E 005°09'510.5
2017-Apr-21 07:00N 62°04' E 005°07'510.5
2017-Apr-21 06:30N 62°09' E 005°03'4 7.6
2017-Apr-21 06:00N 62°12' E 005°05'4 7.0
2017-Apr-21 05:30N 62°14' E 005°12'4 7.9
2017-Apr-21 05:00N 62°11' E 005°19'4 7.5
2017-Apr-21 04:31N 62°12' E 005°26'2 4.7
2017-Apr-21 04:00N 62°13' E 005°31'5 9.2
2017-Apr-21 03:30N 62°17' E 005°32'4 7.8
2017-Apr-21 03:01N 62°19' E 005°39'0 0.2
2017-Apr-21 02:30N 62°19' E 005°39'0 0.0
2017-Apr-21 02:01N 62°19' E 005°39'0 0.6
2017-Apr-21 01:31N 62°19' E 005°40'510.1
2017-Apr-21 01:00N 62°18' E 005°29'5 9.5
2017-Apr-21 00:30N 62°16' E 005°19'5 9.6
2017-Apr-21 00:00N 62°14' E 005°10'5 9.5
2017-Apr-20 23:30N 62°11' E 005°02'4 8.8
2017-Apr-20 23:00N 62°07' E 004°60'3 6.7
2017-Apr-20 22:30N 62°04' E 005°04'3 6.4
2017-Apr-20 21:59N 62°02' E 005°09'5 9.9
2017-Apr-20 21:30N 61°57' E 005°09'4 8.3
2017-Apr-20 21:01N 61°53' E 005°10'4 7.8
2017-Apr-20 20:31N 61°50' E 005°16'5 9.9
2017-Apr-20 20:00N 61°48' E 005°06'510.4
2017-Apr-20 19:30N 61°44' E 004°59'5 9.7
2017-Apr-20 19:00N 61°39' E 004°59'5 9.5
2017-Apr-20 18:31N 61°35' E 004°57'5 9.1
2017-Apr-20 18:00N 61°30' E 004°60'510.0
2017-Apr-20 17:30N 61°26' E 004°54'5 9.9
2017-Apr-20 17:00N 61°22' E 004°49'5 9.7
2017-Apr-20 16:30N 61°18' E 004°54'5 9.9
2017-Apr-20 16:00N 61°13' E 004°58'5 9.6
2017-Apr-20 15:31N 61°10' E 005°05'5 9.9
2017-Apr-20 15:00N 61°06' E 005°12'9 9.0
2017-Apr-20 14:00N 61°04' E 005°30'2 3.5
2017-Apr-20 13:30N 61°04' E 005°34'0 0.0
2017-Apr-20 13:00N 61°04' E 005°34'1 2.7
2017-Apr-20 12:30N 61°04' E 005°31'611.1
2017-Apr-20 12:00N 61°04' E 005°20'611.7
2017-Apr-20 11:30N 61°07' E 005°09'611.1
2017-Apr-20 11:00N 61°11' E 005°01'510.6
2017-Apr-20 10:30N 61°16' E 004°55'5 9.7
2017-Apr-20 10:01N 61°19' E 005°03'510.3
2017-Apr-20 09:30N 61°24' E 004°60'510.5
2017-Apr-20 09:00N 61°29' E 004°59'510.5
2017-Apr-20 08:30N 61°34' E 004°58'510.1
2017-Apr-20 08:00N 61°39' E 004°59'510.0
2017-Apr-20 07:30N 61°44' E 004°59'5 9.8
2017-Apr-20 07:00N 61°48' E 005°06'510.1
2017-Apr-20 06:30N 61°50' E 005°15'4 8.4
2017-Apr-20 06:00N 61°53' E 005°10'4 8.8
2017-Apr-20 05:31N 61°58' E 005°09'5 9.8
2017-Apr-20 05:00N 62°03' E 005°09'5 9.6
2017-Apr-20 04:30N 62°07' E 005°05'3 7.0
2017-Apr-20 04:01N 62°10' E 005°03'3 6.1
2017-Apr-20 03:30N 62°13' E 005°07'4 8.1
2017-Apr-20 03:00N 62°12' E 005°16'4 8.9
2017-Apr-20 02:30N 62°11' E 005°25'4 8.3
2017-Apr-20 02:00N 62°15' E 005°30'4 8.9
2017-Apr-20 01:30N 62°18' E 005°36'2 3.8
2017-Apr-20 01:00N 62°19' E 005°39'0 0.0
2017-Apr-20 00:30N 62°19' E 005°39'0 0.1
2017-Apr-20 00:01N 62°19' E 005°39'4 8.1
2017-Apr-19 23:30N 62°18' E 005°31'510.3
2017-Apr-19 23:00N 62°16' E 005°21'510.4
2017-Apr-19 22:30N 62°14' E 005°11'510.0
2017-Apr-19 22:00N 62°10' E 005°04'5 9.7
2017-Apr-19 21:30N 62°06' E 005°06'5 9.8
2017-Apr-19 21:00N 62°01' E 005°09'510.1
2017-Apr-19 20:30N 61°56' E 005°07'4 8.3
2017-Apr-19 20:00N 61°52' E 005°13'3 6.4
2017-Apr-19 19:30N 61°49' E 005°12'611.0
2017-Apr-19 19:00N 61°46' E 005°02'510.4
2017-Apr-19 18:30N 61°42' E 004°57'510.2
2017-Apr-19 18:00N 61°37' E 004°58'4 9.0
2017-Apr-19 17:30N 61°32' E 005°00'5 9.8
2017-Apr-19 17:00N 61°28' E 004°56'510.4
2017-Apr-19 16:30N 61°24' E 004°50'5 9.4
2017-Apr-19 16:00N 61°19' E 004°51'510.3
2017-Apr-19 15:30N 61°14' E 004°56'510.3
2017-Apr-19 15:00N 61°10' E 005°02'510.6
2017-Apr-19 14:30N 61°07' E 005°11'10 9.8
2017-Apr-19 13:30N 61°04' E 005°30'2 3.4
2017-Apr-19 12:58N 61°04' E 005°34'0 0.0
2017-Apr-19 12:28N 61°04' E 005°34'0 0.0
2017-Apr-19 11:58N 61°04' E 005°34'2 4.5
2017-Apr-19 11:30N 61°04' E 005°30'510.2
2017-Apr-19 11:00N 61°05' E 005°19'510.5
2017-Apr-19 10:30N 61°08' E 005°10'510.3
2017-Apr-19 10:00N 61°11' E 005°01'5 9.8
2017-Apr-19 09:30N 61°15' E 004°55'510.1
2017-Apr-19 09:00N 61°19' E 004°51'5 9.1
2017-Apr-19 08:30N 61°24' E 004°50'5 9.9
2017-Apr-19 08:00N 61°28' E 004°56'5 9.8
2017-Apr-19 07:30N 61°32' E 005°00'4 7.6
2017-Apr-19 07:00N 61°36' E 004°60'1 1.5
2017-Apr-19 06:28N 61°36' E 005°01'0 0.0
2017-Apr-19 05:58N 61°36' E 005°01'0 0.0
2017-Apr-19 05:28N 61°36' E 005°01'0 0.0
2017-Apr-19 04:58N 61°36' E 005°01'0 0.0
2017-Apr-19 04:28N 61°36' E 005°01'0 0.0
2017-Apr-19 03:58N 61°36' E 005°01'0 0.0
2017-Apr-19 03:28N 61°36' E 005°01'0 0.0
2017-Apr-19 02:58N 61°36' E 005°01'0 0.0
2017-Apr-19 02:28N 61°36' E 005°01'0 0.0
2017-Apr-19 02:00N 61°36' E 005°01'0 0.0
2017-Apr-19 01:30N 61°36' E 005°01'0 0.0
2017-Apr-19 01:00N 61°36' E 005°01'0 0.0
2017-Apr-19 00:30N 61°36' E 005°01'0 0.0
2017-Apr-19 00:00N 61°36' E 005°01'0 0.0
2017-Apr-18 23:30N 61°36' E 005°01'0 0.0
2017-Apr-18 23:00N 61°36' E 005°01'0 0.0
2017-Apr-18 22:30N 61°36' E 005°01'0 0.0
2017-Apr-18 22:00N 61°36' E 005°01'0 0.0
2017-Apr-18 21:29N 61°36' E 005°01'2 5.1
2017-Apr-18 21:00N 61°34' E 004°57'610.3
2017-Apr-18 20:27N 61°36' E 005°09'1 1.5
2017-Apr-18 19:38N 61°36' E 005°11'0 0.7
2017-Apr-18 19:24N 61°36' E 005°12'2 5.4
2017-Apr-18 18:59N 61°36' E 005°07'0 0.4
2017-Apr-18 18:30N 61°36' E 005°07'2 3.7
2017-Apr-18 17:57N 61°36' E 005°11'0 0.0
2017-Apr-18 17:27N 61°36' E 005°11'0 0.1
2017-Apr-18 16:25N 61°36' E 005°12'2 5.2
2017-Apr-18 16:00N 61°36' E 005°07'0 0.4
2017-Apr-18 15:29N 61°36' E 005°08'2 1.5
2017-Apr-18 14:16N 61°36' E 005°11'0 0.3
2017-Apr-18 13:22N 61°36' E 005°12'2 6.1
2017-Apr-18 12:59N 61°36' E 005°07'0 0.1
2017-Apr-18 12:30N 61°35' E 005°07'2 1.6
2017-Apr-18 11:01N 61°36' E 005°12'0 5.9
2017-Apr-18 11:00N 61°36' E 005°12'0 0.6
2017-Apr-18 10:28N 61°36' E 005°11'2 3.9
2017-Apr-18 09:59N 61°36' E 005°07'0 0.2
2017-Apr-18 09:30N 61°36' E 005°07'1 1.6
2017-Apr-18 09:00N 61°36' E 005°09'1 1.0
2017-Apr-18 07:51N 61°36' E 005°11'1 1.7
2017-Apr-18 07:30N 61°36' E 005°10'0 0.1
2017-Apr-18 06:19N 61°36' E 005°10'0 0.7
2017-Apr-18 05:50N 61°36' E 005°10'2 6.0
2017-Apr-18 05:29N 61°35' E 005°06'4 8.2
2017-Apr-18 05:00N 61°34' E 004°58'3 5.5
2017-Apr-18 04:30N 61°36' E 005°02'0 0.0
2017-Apr-18 04:00N 61°36' E 005°02'0 0.0
2017-Apr-18 03:29N 61°36' E 005°02'0 0.0
2017-Apr-18 03:00N 61°36' E 005°02'0 0.0
2017-Apr-18 02:30N 61°36' E 005°02'0 0.0
2017-Apr-18 02:00N 61°36' E 005°02'0 0.0
2017-Apr-18 01:30N 61°36' E 005°02'0 0.0
2017-Apr-18 01:00N 61°36' E 005°02'0 0.0
2017-Apr-18 00:30N 61°36' E 005°02'0 0.0
2017-Apr-18 00:00N 61°36' E 005°02'0 0.0
2017-Apr-17 23:30N 61°36' E 005°02'0 0.2
2017-Apr-17 23:00N 61°36' E 005°02'0 0.1
2017-Apr-17 22:30N 61°36' E 005°02'0 0.0
2017-Apr-17 22:00N 61°36' E 005°02'0 0.0
2017-Apr-17 21:30N 61°36' E 005°02'0 0.0
2017-Apr-17 21:00N 61°36' E 005°02'0 0.0
2017-Apr-17 20:30N 61°36' E 005°02'3 5.7
2017-Apr-17 20:00N 61°39' E 004°59'510.2
2017-Apr-17 19:30N 61°44' E 004°58'510.5
2017-Apr-17 19:00N 61°48' E 005°06'510.4
2017-Apr-17 18:30N 61°50' E 005°15'4 8.8
2017-Apr-17 18:00N 61°54' E 005°10'3 5.1
2017-Apr-17 17:30N 61°56' E 005°08'4 9.0
2017-Apr-17 17:00N 62°00' E 005°09'611.0
2017-Apr-17 16:30N 62°06' E 005°06'510.8
2017-Apr-17 16:00N 62°11' E 005°05'510.4
2017-Apr-17 15:30N 62°14' E 005°13'510.9
2017-Apr-17 15:00N 62°17' E 005°23'510.9
2017-Apr-17 14:30N 62°18' E 005°35'2 2.5
2017-Apr-17 13:30N 62°19' E 005°39'0 0.7
2017-Apr-17 13:00N 62°19' E 005°40'5 9.1
2017-Apr-17 12:30N 62°17' E 005°32'5 9.3
2017-Apr-17 12:00N 62°12' E 005°30'5 9.2
2017-Apr-17 11:30N 62°09' E 005°22'1 2.8
2017-Apr-17 11:00N 62°08' E 005°20'0 0.0
2017-Apr-17 10:30N 62°08' E 005°20'0 0.0
2017-Apr-17 10:00N 62°08' E 005°20'0 0.0
2017-Apr-17 09:30N 62°08' E 005°20'0 0.0
2017-Apr-17 09:00N 62°08' E 005°20'0 0.0
2017-Apr-17 08:30N 62°08' E 005°20'0 0.0
2017-Apr-17 08:00N 62°08' E 005°20'0 0.0
2017-Apr-17 07:30N 62°08' E 005°20'1 1.4
2017-Apr-17 07:00N 62°09' E 005°21'510.0
2017-Apr-17 06:30N 62°12' E 005°29'3 5.2
2017-Apr-17 06:00N 62°12' E 005°34'0 0.0
2017-Apr-17 05:30N 62°12' E 005°34'0 0.0
2017-Apr-17 05:00N 62°12' E 005°34'0 0.0
2017-Apr-17 04:30N 62°12' E 005°34'0 0.0
2017-Apr-17 04:00N 62°12' E 005°34'0 0.0
2017-Apr-17 03:30N 62°12' E 005°34'0 0.0
2017-Apr-17 03:00N 62°12' E 005°34'0 0.0
2017-Apr-17 02:30N 62°12' E 005°34'0 0.0
2017-Apr-17 02:00N 62°12' E 005°34'0 0.0
2017-Apr-17 01:30N 62°12' E 005°34'0 0.0
2017-Apr-17 01:00N 62°12' E 005°34'0 0.0
2017-Apr-17 00:30N 62°12' E 005°34'0 0.0
2017-Apr-17 00:00N 62°12' E 005°34'0 0.0
2017-Apr-16 23:30N 62°12' E 005°34'0 0.0
2017-Apr-16 23:00N 62°12' E 005°34'0 0.0
2017-Apr-16 22:30N 62°12' E 005°34'0 0.0
2017-Apr-16 22:00N 62°12' E 005°34'0 0.0
2017-Apr-16 21:30N 62°12' E 005°34'0 0.0
2017-Apr-16 21:00N 62°12' E 005°34'0 0.0
2017-Apr-16 20:30N 62°12' E 005°34'0 0.0
2017-Apr-16 20:00N 62°12' E 005°34'0 0.0
2017-Apr-16 19:30N 62°12' E 005°34'0 0.0
2017-Apr-16 19:00N 62°12' E 005°34'0 0.0
2017-Apr-16 18:30N 62°12' E 005°34'0 0.0
2017-Apr-16 18:00N 62°12' E 005°34'0 0.0
2017-Apr-16 17:30N 62°12' E 005°34'0 0.0
2017-Apr-16 17:00N 62°12' E 005°34'0 0.0
2017-Apr-16 16:30N 62°12' E 005°34'0 0.0
2017-Apr-16 15:57N 62°12' E 005°34'0 0.0
2017-Apr-16 15:30N 62°12' E 005°34'0 0.0
2017-Apr-16 15:00N 62°12' E 005°34'0 0.0
2017-Apr-16 14:00N 62°12' E 005°34'0 0.0
2017-Apr-16 13:30N 62°12' E 005°34'0 0.0
2017-Apr-16 13:00N 62°12' E 005°34'0 0.0
2017-Apr-16 12:30N 62°12' E 005°34'0 0.0
2017-Apr-16 12:00N 62°12' E 005°34'0 0.0
2017-Apr-16 11:30N 62°12' E 005°34'0 0.0
2017-Apr-16 11:00N 62°12' E 005°34'0 0.0
2017-Apr-16 10:30N 62°12' E 005°34'0 0.0
2017-Apr-16 10:00N 62°12' E 005°34'0 0.0
2017-Apr-16 09:30N 62°12' E 005°34'0 0.0
2017-Apr-16 09:00N 62°12' E 005°34'0 0.0
2017-Apr-16 08:30N 62°12' E 005°34'0 0.0
2017-Apr-16 08:00N 62°12' E 005°34'0 0.0
2017-Apr-16 07:30N 62°12' E 005°34'0 0.0
2017-Apr-16 07:00N 62°12' E 005°34'0 0.0
2017-Apr-16 06:30N 62°12' E 005°34'0 0.0
2017-Apr-16 06:00N 62°12' E 005°34'0 0.0
2017-Apr-16 05:30N 62°12' E 005°34'0 0.0
2017-Apr-16 05:00N 62°12' E 005°34'0 0.0
2017-Apr-16 04:30N 62°12' E 005°34'0 0.0
2017-Apr-16 04:00N 62°12' E 005°34'0 0.0
2017-Apr-16 03:30N 62°12' E 005°34'0 0.0
2017-Apr-16 03:00N 62°12' E 005°34'0 0.0
2017-Apr-16 02:30N 62°12' E 005°34'0 0.0
2017-Apr-16 02:00N 62°12' E 005°34'0 0.0
2017-Apr-16 01:30N 62°12' E 005°34'0 0.0
2017-Apr-16 01:00N 62°12' E 005°34'0 0.0
2017-Apr-16 00:30N 62°12' E 005°34'0 0.0
2017-Apr-16 00:00N 62°12' E 005°34'0 0.0
2017-Apr-15 23:27N 62°12' E 005°34'0 0.0
2017-Apr-15 23:00N 62°12' E 005°34'0 0.0
2017-Apr-15 22:30N 62°12' E 005°34'0 0.0
2017-Apr-15 22:00N 62°12' E 005°34'0 0.0
2017-Apr-15 21:27N 62°12' E 005°34'0 0.0
2017-Apr-15 21:00N 62°12' E 005°34'0 0.0
2017-Apr-15 20:30N 62°12' E 005°34'0 0.0
2017-Apr-15 20:00N 62°12' E 005°34'0 0.0
2017-Apr-15 19:30N 62°12' E 005°34'0 0.0
2017-Apr-15 19:00N 62°12' E 005°34'0 0.0
2017-Apr-15 18:27N 62°12' E 005°34'0 0.0
2017-Apr-15 18:00N 62°12' E 005°34'0 0.0
2017-Apr-15 17:30N 62°12' E 005°34'0 0.0
2017-Apr-15 17:00N 62°12' E 005°34'0 0.0
2017-Apr-15 16:30N 62°12' E 005°34'0 0.0
2017-Apr-15 16:00N 62°12' E 005°34'0 0.0
2017-Apr-15 15:30N 62°12' E 005°34'0 0.0
2017-Apr-15 15:00N 62°12' E 005°34'0 0.0
2017-Apr-15 13:57N 62°12' E 005°34'0 0.0
2017-Apr-15 13:30N 62°12' E 005°34'0 0.0
2017-Apr-15 13:00N 62°12' E 005°34'0 0.0
2017-Apr-15 12:30N 62°12' E 005°34'0 0.0
2017-Apr-15 12:00N 62°12' E 005°34'0 0.0
2017-Apr-15 11:30N 62°12' E 005°34'0 0.0
2017-Apr-15 11:00N 62°12' E 005°34'0 0.0
2017-Apr-15 10:30N 62°12' E 005°34'0 0.0
2017-Apr-15 10:00N 62°12' E 005°34'0 0.0
2017-Apr-15 09:30N 62°12' E 005°34'0 0.0
2017-Apr-15 09:00N 62°12' E 005°34'0 0.0
2017-Apr-15 08:30N 62°12' E 005°34'0 0.0
2017-Apr-15 08:00N 62°12' E 005°34'0 0.0
2017-Apr-15 07:30N 62°12' E 005°34'0 0.0
2017-Apr-15 07:00N 62°12' E 005°34'0 0.0
2017-Apr-15 06:30N 62°12' E 005°34'0 0.0
2017-Apr-15 06:00N 62°12' E 005°34'0 0.0
2017-Apr-15 05:30N 62°12' E 005°34'0 0.0
2017-Apr-15 05:00N 62°12' E 005°34'0 0.0
2017-Apr-15 04:30N 62°12' E 005°34'0 0.0
2017-Apr-15 04:00N 62°12' E 005°34'0 0.0
2017-Apr-15 03:30N 62°12' E 005°34'0 0.0
2017-Apr-15 02:57N 62°12' E 005°34'0 0.0
2017-Apr-15 02:30N 62°12' E 005°34'0 0.0
2017-Apr-15 02:00N 62°12' E 005°34'0 0.0
2017-Apr-15 01:30N 62°12' E 005°34'0 0.0
2017-Apr-15 01:00N 62°12' E 005°34'0 0.0
2017-Apr-15 00:30N 62°12' E 005°34'0 0.0
2017-Apr-15 00:00N 62°12' E 005°34'0 0.0
2017-Apr-14 23:30N 62°12' E 005°34'0 0.0
2017-Apr-14 23:00N 62°12' E 005°34'0 0.0
2017-Apr-14 22:30N 62°12' E 005°34'0 0.0
2017-Apr-14 21:54N 62°12' E 005°34'0 0.0
2017-Apr-14 21:30N 62°12' E 005°34'0 0.0
2017-Apr-14 21:00N 62°12' E 005°34'0 0.0
2017-Apr-14 20:30N 62°12' E 005°34'0 0.0
2017-Apr-14 20:00N 62°12' E 005°34'0 0.0
2017-Apr-14 19:30N 62°12' E 005°34'0 0.0
2017-Apr-14 19:00N 62°12' E 005°34'0 0.0
2017-Apr-14 18:30N 62°12' E 005°34'0 0.0
2017-Apr-14 18:00N 62°12' E 005°34'0 0.0
2017-Apr-14 17:30N 62°12' E 005°34'0 0.0
2017-Apr-14 17:00N 62°12' E 005°34'0 0.0
2017-Apr-14 16:30N 62°12' E 005°34'0 0.0
2017-Apr-14 16:00N 62°12' E 005°34'0 0.0
2017-Apr-14 15:30N 62°12' E 005°34'0 0.0
2017-Apr-14 15:00N 62°12' E 005°34'0 0.0
2017-Apr-14 14:30N 62°12' E 005°34'0 0.0
2017-Apr-14 13:30N 62°12' E 005°34'0 0.0
2017-Apr-14 13:00N 62°12' E 005°34'0 0.0
2017-Apr-14 12:30N 62°12' E 005°34'0 0.0
2017-Apr-14 12:00N 62°12' E 005°34'0 0.0
2017-Apr-14 11:30N 62°12' E 005°34'0 0.0
2017-Apr-14 11:00N 62°12' E 005°34'0 0.0
2017-Apr-14 10:30N 62°12' E 005°34'0 0.0
2017-Apr-14 10:00N 62°12' E 005°34'0 0.0
2017-Apr-14 09:30N 62°12' E 005°34'0 0.0
2017-Apr-14 08:54N 62°12' E 005°34'0 0.0
2017-Apr-14 08:30N 62°12' E 005°34'0 0.0
2017-Apr-14 08:00N 62°12' E 005°34'0 0.0
2017-Apr-14 07:30N 62°12' E 005°34'0 0.0
2017-Apr-14 07:00N 62°12' E 005°34'0 0.0
2017-Apr-14 06:30N 62°12' E 005°34'0 0.0
2017-Apr-14 06:00N 62°12' E 005°34'0 0.0
2017-Apr-14 05:30N 62°12' E 005°34'0 0.0
2017-Apr-14 05:00N 62°12' E 005°34'0 0.0
2017-Apr-14 04:30N 62°12' E 005°34'0 0.0
2017-Apr-14 04:00N 62°12' E 005°34'0 0.0
2017-Apr-14 03:30N 62°12' E 005°34'0 0.0
2017-Apr-14 03:00N 62°12' E 005°34'0 0.0
2017-Apr-14 02:30N 62°12' E 005°34'0 0.0
2017-Apr-14 02:00N 62°12' E 005°34'0 0.0
2017-Apr-14 01:30N 62°12' E 005°34'0 0.0
2017-Apr-14 01:00N 62°12' E 005°34'0 0.0
2017-Apr-14 00:30N 62°12' E 005°34'0 0.0
2017-Apr-14 00:00N 62°12' E 005°34'0 0.0
2017-Apr-13 23:30N 62°12' E 005°34'0 0.0
2017-Apr-13 23:00N 62°12' E 005°34'0 0.0
2017-Apr-13 22:30N 62°12' E 005°34'0 0.0
2017-Apr-13 22:00N 62°12' E 005°34'  

Dump ship's entire track history